Swedesboro, New Jersey
Current Conditions -  °F | °C
As of 7:54 PM on Friday 19 Dec 2014 (Local Time) from KPHL Reporting Station
Clear Clear  
Wind Chill: 29°   Ceiling: Unl
Heat Index: 34°   Visibility: 10mi
Dew Point: 21°   Wind: 6mph
Humidity: 59%   Direction: 350°N
Pressure: 30.18"   Gusts: NA
Location:  39.75°N, 75.31°W
Report Text: KPHL 200054Z 35005KT 10SM CLR 01/M06 A3018 RMK AO2 SLP219 T00111061
Loading
Personal Weather Stations






























Interactive Weather Map New forecast layout! Learn more

10-Day Weather Forecast

Advertisements
Track Severe Weather on mobile